createdAt,value
2022-10-17T00:00:48.026Z,100322.69
2022-10-17T00:03:37.047Z,100328.09
2022-10-17T00:06:25.396Z,100322.25
2022-10-17T00:09:13.792Z,100315.34
2022-10-17T00:12:02.647Z,100322.44
2022-10-17T00:14:51.017Z,100326.06
2022-10-17T00:17:41.925Z,100326.16
2022-10-17T00:20:50.997Z,100335.00
2022-10-17T00:23:39.385Z,100343.03
2022-10-17T00:26:28.500Z,100347.41
2022-10-17T00:29:16.865Z,100341.25
2022-10-17T00:32:05.626Z,100347.41
2022-10-17T00:34:55.336Z,100351.88
2022-10-17T00:37:43.700Z,100353.72
2022-10-17T00:40:32.171Z,100346.94
2022-10-17T00:43:20.515Z,100346.09
2022-10-17T00:46:09.318Z,100348.78
2022-10-17T00:48:59.964Z,100354.00
2022-10-17T00:51:52.032Z,100359.31
2022-10-17T00:54:45.501Z,100359.38
2022-10-17T00:57:33.916Z,100356.91
2022-10-17T01:00:22.719Z,100363.97
2022-10-17T01:03:11.143Z,100359.78
2022-10-17T01:05:59.491Z,100365.09
2022-10-17T01:08:49.230Z,100374.75
2022-10-17T01:11:40.998Z,100367.16
2022-10-17T01:14:32.232Z,100375.13
2022-10-17T01:17:25.464Z,100377.94
2022-10-17T01:20:49.550Z,100375.34
2022-10-17T01:24:24.553Z,100375.69
2022-10-17T01:27:48.177Z,100386.13
2022-10-17T01:31:06.461Z,100383.44
2022-10-17T01:34:00.262Z,100370.47
2022-10-17T01:36:52.488Z,100371.44
2022-10-17T01:39:45.532Z,100376.72
2022-10-17T01:42:38.078Z,100371.44
2022-10-17T01:45:29.337Z,100375.06
2022-10-17T01:48:22.799Z,100371.72
2022-10-17T01:51:14.594Z,100367.78
2022-10-17T01:54:05.370Z,100369.66
2022-10-17T01:56:56.396Z,100375.88
2022-10-17T01:59:47.430Z,100378.59
2022-10-17T02:02:35.955Z,100368.44
2022-10-17T02:05:27.612Z,100370.47
2022-10-17T02:08:25.493Z,100370.66
2022-10-17T02:11:16.159Z,100370.66
2022-10-17T02:14:15.585Z,100365.38
2022-10-17T02:17:10.491Z,100360.25
2022-10-17T02:20:03.463Z,100349.28
2022-10-17T02:22:57.217Z,100357.09
2022-10-17T02:25:51.148Z,100346.66
2022-10-17T02:28:43.432Z,100359.56
2022-10-17T02:31:34.518Z,100360.44
2022-10-17T02:34:25.525Z,100356.16
2022-10-17T02:37:16.380Z,100356.97
2022-10-17T02:40:07.446Z,100356.16
2022-10-17T02:42:59.934Z,100360.44
2022-10-17T02:45:48.324Z,100360.44
2022-10-17T02:48:38.384Z,100356.97
2022-10-17T02:51:33.022Z,100358.75
2022-10-17T02:54:23.381Z,100361.25
2022-10-17T02:57:16.765Z,100359.50
2022-10-17T03:00:07.338Z,100368.06
2022-10-17T03:02:55.869Z,100360.25
2022-10-17T03:05:44.264Z,100370.66
2022-10-17T03:08:32.711Z,100369.72
2022-10-17T03:11:21.999Z,100365.38
2022-10-17T03:14:13.462Z,100364.34
2022-10-17T03:17:02.539Z,100370.31
2022-10-17T03:19:50.907Z,100366.94
2022-10-17T03:22:39.309Z,100369.47
2022-10-17T03:25:28.044Z,100376.41
2022-10-17T03:28:16.392Z,100382.50
2022-10-17T03:31:10.153Z,100378.13
2022-10-17T03:33:59.796Z,100377.16
2022-10-17T03:36:48.317Z,100379.88
2022-10-17T03:39:37.060Z,100374.00
2022-10-17T03:42:25.520Z,100374.22
2022-10-17T03:45:14.001Z,100377.81
2022-10-17T03:48:05.912Z,100384.03
2022-10-17T03:50:54.332Z,100379.19
2022-10-17T03:53:42.816Z,100375.09
2022-10-17T03:56:31.314Z,100385.69
2022-10-17T03:59:29.334Z,100392.75
2022-10-17T04:02:25.065Z,100393.69
2022-10-17T04:05:15.387Z,100409.31
2022-10-17T04:08:04.817Z,100420.63
2022-10-17T04:11:14.603Z,100417.28
2022-10-17T04:14:03.974Z,100413.75
2022-10-17T04:16:53.437Z,100415.59
2022-10-17T04:19:42.823Z,100419.03
2022-10-17T04:22:32.586Z,100418.22
2022-10-17T04:25:21.278Z,100412.41
2022-10-17T04:28:10.442Z,100419.47
2022-10-17T04:31:00.641Z,100429.13
2022-10-17T04:33:54.423Z,100423.91
2022-10-17T04:36:42.805Z,100424.00
2022-10-17T04:39:32.995Z,100425.75
2022-10-17T04:42:21.391Z,100424.81
2022-10-17T04:45:11.880Z,100421.50
2022-10-17T04:48:01.693Z,100419.88
2022-10-17T04:50:56.306Z,100422.41
2022-10-17T04:53:54.215Z,100408.47
2022-10-17T04:56:44.069Z,100410.22
2022-10-17T04:59:32.438Z,100404.19
2022-10-17T05:02:37.359Z,100411.09
2022-10-17T05:05:25.928Z,100413.50
2022-10-17T05:08:15.940Z,100427.34
2022-10-17T05:11:05.762Z,100431.72
2022-10-17T05:13:57.137Z,100430.22
2022-10-17T05:16:45.775Z,100429.81
2022-10-17T05:19:34.864Z,100426.72
2022-10-17T05:22:23.418Z,100431.19
2022-10-17T05:25:11.902Z,100429.56
2022-10-17T05:28:00.287Z,100434.88
2022-10-17T05:30:50.468Z,100433.28
2022-10-17T05:33:39.057Z,100437.63
2022-10-17T05:36:27.553Z,100442.00
2022-10-17T05:39:19.507Z,100438.72
2022-10-17T05:42:09.268Z,100450.91
2022-10-17T05:44:58.342Z,100440.00
2022-10-17T05:47:48.805Z,100441.00
2022-10-17T05:50:38.031Z,100437.72
2022-10-17T05:53:32.988Z,100433.53
2022-10-17T05:56:25.028Z,100446.38
2022-10-17T05:59:13.718Z,100437.50
2022-10-17T06:02:10.812Z,100439.91
2022-10-17T06:04:45.316Z,100442.34
2022-10-17T06:07:14.482Z,100448.97
2022-10-17T06:12:17.767Z,100451.25
2022-10-17T06:14:46.405Z,100443.34
2022-10-17T06:17:16.408Z,100456.25
2022-10-17T06:19:46.686Z,100449.97
2022-10-17T06:22:16.311Z,100444.59
2022-10-17T06:24:44.893Z,100450.53
2022-10-17T06:27:13.783Z,100459.41
2022-10-17T06:29:42.689Z,100461.84
2022-10-17T06:32:14.952Z,100460.78
2022-10-17T06:34:47.287Z,100458.00
2022-10-17T06:37:16.398Z,100470.00
2022-10-17T06:39:46.573Z,100478.22
2022-10-17T06:42:18.281Z,100481.06
2022-10-17T06:44:56.269Z,100484.06
2022-10-17T06:47:38.378Z,100476.13
2022-10-17T06:50:21.185Z,100483.59
2022-10-17T06:52:59.866Z,100489.09
2022-10-17T06:55:46.808Z,100480.97
2022-10-17T06:58:22.158Z,100474.00
2022-10-17T07:01:01.580Z,100471.41
2022-10-17T07:03:30.050Z,100469.88
2022-10-17T07:05:59.621Z,100463.97
2022-10-17T07:08:29.068Z,100472.63
2022-10-17T07:10:57.325Z,100480.75
2022-10-17T07:13:25.712Z,100487.56
2022-10-17T07:18:26.578Z,100494.91
2022-10-17T07:20:55.107Z,100501.44
2022-10-17T07:23:24.740Z,100513.38
2022-10-17T07:25:53.324Z,100529.16
2022-10-17T07:28:21.560Z,100525.78
2022-10-17T07:30:52.140Z,100524.56
2022-10-17T07:33:22.710Z,100527.97
2022-10-17T07:35:52.541Z,100522.00
2022-10-17T07:38:20.817Z,100532.84
2022-10-17T07:40:56.725Z,100530.47
2022-10-17T07:43:24.858Z,100532.56
2022-10-17T07:45:54.522Z,100546.63
2022-10-17T07:48:23.799Z,100557.50
2022-10-17T07:50:52.012Z,100562.91
2022-10-17T07:53:20.080Z,100566.94
2022-10-17T07:55:49.581Z,100562.19
2022-10-17T07:58:19.054Z,100563.88
2022-10-17T08:00:48.575Z,100555.81
2022-10-17T08:03:16.790Z,100562.47
2022-10-17T08:05:44.998Z,100560.94
2022-10-17T08:08:13.095Z,100562.19
2022-10-17T08:10:41.253Z,100571.66
2022-10-17T08:13:09.351Z,100569.03
2022-10-17T08:15:39.753Z,100569.28
2022-10-17T08:18:07.837Z,100560.81
2022-10-17T08:20:35.928Z,100559.72
2022-10-17T08:23:03.973Z,100566.88
2022-10-17T08:25:32.574Z,100562.53
2022-10-17T08:28:00.714Z,100562.06
2022-10-17T08:30:30.609Z,100563.25
2022-10-17T08:33:00.300Z,100552.97
2022-10-17T08:35:28.385Z,100552.19
2022-10-17T08:37:56.502Z,100560.66
2022-10-17T08:40:26.613Z,100554.66
2022-10-17T08:43:06.919Z,100556.28
2022-10-17T08:45:37.142Z,100551.69
2022-10-17T08:48:10.823Z,100550.91
2022-10-17T08:50:41.215Z,100556.00
2022-10-17T08:53:12.949Z,100558.53
2022-10-17T08:55:45.316Z,100545.09
2022-10-17T08:58:15.339Z,100554.00
2022-10-17T09:00:47.330Z,100549.97
2022-10-17T09:03:33.771Z,100547.47
2022-10-17T09:06:12.286Z,100543.16
2022-10-17T09:08:47.307Z,100536.59
2022-10-17T09:11:22.426Z,100546.59
2022-10-17T09:14:02.422Z,100554.66
2022-10-17T09:16:51.171Z,100554.06
2022-10-17T09:19:22.530Z,100543.75
2022-10-17T09:21:53.356Z,100560.69
2022-10-17T09:24:25.765Z,100564.81
2022-10-17T09:26:54.002Z,100570.94
2022-10-17T09:29:24.045Z,100578.97
2022-10-17T09:32:00.980Z,100569.56
2022-10-17T09:34:31.918Z,100587.47
2022-10-17T09:37:00.735Z,100592.75
2022-10-17T09:39:31.788Z,100584.81
2022-10-17T09:42:01.321Z,100585.00
2022-10-17T09:44:32.180Z,100587.75
2022-10-17T09:47:17.867Z,100582.06
2022-10-17T09:49:48.394Z,100587.34
2022-10-17T09:52:18.938Z,100580.53
2022-10-17T09:54:48.164Z,100586.03
2022-10-17T09:57:17.693Z,100582.09
2022-10-17T09:59:47.291Z,100585.50
2022-10-17T10:02:21.554Z,100588.13
2022-10-17T10:05:04.291Z,100579.53
2022-10-17T10:07:35.069Z,100586.03
2022-10-17T10:10:03.850Z,100593.41
2022-10-17T10:12:33.483Z,100593.75
2022-10-17T10:15:01.678Z,100594.06
2022-10-17T10:17:36.764Z,100599.16
2022-10-17T10:20:28.470Z,100605.44
2022-10-17T10:23:17.233Z,100605.13
2022-10-17T10:25:56.642Z,100609.97
2022-10-17T10:28:27.829Z,100624.59
2022-10-17T10:30:56.423Z,100609.69
2022-10-17T10:33:27.225Z,100612.59
2022-10-17T10:35:59.354Z,100617.03
2022-10-17T10:38:27.451Z,100611.97
2022-10-17T10:40:56.725Z,100601.25
2022-10-17T10:43:30.668Z,100597.19
2022-10-17T10:45:59.113Z,100593.94
2022-10-17T10:48:28.598Z,100593.03
2022-10-17T10:51:00.232Z,100584.13
2022-10-17T10:53:38.108Z,100577.91
2022-10-17T10:56:10.778Z,100580.47
2022-10-17T10:58:49.597Z,100587.44
2022-10-17T11:01:22.718Z,100582.22
2022-10-17T11:04:00.856Z,100586.56
2022-10-17T11:06:32.406Z,100586.97
2022-10-17T11:09:15.013Z,100599.28
2022-10-17T11:11:45.657Z,100588.34
2022-10-17T11:14:17.319Z,100590.19
2022-10-17T11:16:48.629Z,100593.84
2022-10-17T11:19:21.530Z,100597.03
2022-10-17T11:22:06.495Z,100604.19
2022-10-17T11:24:38.146Z,100593.44
2022-10-17T11:27:07.223Z,100591.28
2022-10-17T11:29:38.142Z,100603.06
2022-10-17T11:32:09.047Z,100604.66
2022-10-17T11:34:40.731Z,100612.25
2022-10-17T11:37:15.234Z,100606.03
2022-10-17T11:39:48.721Z,100617.81
2022-10-17T11:42:20.422Z,100610.00
2022-10-17T11:44:48.484Z,100600.09
2022-10-17T11:47:28.722Z,100608.47
2022-10-17T11:52:57.338Z,100602.72
2022-10-17T11:55:26.871Z,100614.63
2022-10-17T11:58:12.207Z,100599.50
2022-10-17T12:00:51.411Z,100605.63
2022-10-17T12:03:30.444Z,100607.47
2022-10-17T12:06:01.324Z,100611.88
2022-10-17T12:08:35.036Z,100610.25
2022-10-17T12:11:11.322Z,100612.63
2022-10-17T12:13:54.525Z,100601.44
2022-10-17T12:16:47.942Z,100600.91
2022-10-17T12:19:43.089Z,100600.06
2022-10-17T12:22:23.502Z,100607.09
2022-10-17T12:25:01.473Z,100599.00
2022-10-17T12:27:43.473Z,100594.06
2022-10-17T12:30:25.539Z,100592.78
2022-10-17T12:33:22.189Z,100587.47
2022-10-17T12:35:51.155Z,100601.56
2022-10-17T12:38:27.944Z,100590.13
2022-10-17T12:41:06.210Z,100595.38
2022-10-17T12:43:48.337Z,100600.53
2022-10-17T12:46:58.141Z,100591.44
2022-10-17T12:49:43.320Z,100583.16
2022-10-17T12:52:53.843Z,100584.94
2022-10-17T12:55:25.167Z,100594.69
2022-10-17T12:57:58.567Z,100592.34
2022-10-17T13:00:33.087Z,100582.03
2022-10-17T13:03:07.287Z,100587.50
2022-10-17T13:05:37.018Z,100588.81
2022-10-17T13:08:06.853Z,100590.63
2022-10-17T13:10:36.205Z,100583.69
2022-10-17T13:13:20.036Z,100588.34
2022-10-17T13:15:48.956Z,100586.22
2022-10-17T13:18:22.229Z,100591.88
2022-10-17T13:21:01.545Z,100581.78
2022-10-17T13:23:33.084Z,100583.28
2022-10-17T13:26:14.244Z,100588.47
2022-10-17T13:28:43.943Z,100584.97
2022-10-17T13:31:32.137Z,100580.50
2022-10-17T13:34:01.686Z,100593.78
2022-10-17T13:36:30.894Z,100600.41
2022-10-17T13:38:59.784Z,100605.09
2022-10-17T13:41:37.061Z,100612.41
2022-10-17T13:44:12.972Z,100618.03
2022-10-17T13:46:41.302Z,100615.03
2022-10-17T13:49:25.726Z,100608.38
2022-10-17T13:51:56.015Z,100606.09
2022-10-17T13:54:38.029Z,100610.38
2022-10-17T13:57:06.380Z,100616.53
2022-10-17T13:59:40.469Z,100615.38
2022-10-17T14:02:14.543Z,100616.03
2022-10-17T14:05:15.027Z,100611.56
2022-10-17T14:07:58.183Z,100616.97
2022-10-17T14:10:26.122Z,100616.78
2022-10-17T14:12:54.678Z,100614.81
2022-10-17T14:15:27.505Z,100611.63
2022-10-17T14:17:56.258Z,100623.06
2022-10-17T14:21:07.739Z,100616.94
2022-10-17T14:23:32.027Z,100610.31
2022-10-17T14:26:12.332Z,100609.81
2022-10-17T14:28:41.128Z,100614.22
2022-10-17T14:31:30.596Z,100609.56
2022-10-17T14:33:58.629Z,100607.38
2022-10-17T14:36:38.708Z,100607.06
2022-10-17T14:39:13.293Z,100604.88
2022-10-17T14:41:44.589Z,100601.34
2022-10-17T14:44:21.657Z,100617.69
2022-10-17T14:46:55.281Z,100621.97
2022-10-17T14:49:33.394Z,100624.56
2022-10-17T14:52:31.411Z,100622.22
2022-10-17T14:55:00.659Z,100625.53
2022-10-17T14:57:41.997Z,100631.06
2022-10-17T15:00:14.932Z,100632.34
2022-10-17T15:02:44.772Z,100632.13
2022-10-17T15:05:13.612Z,100639.56
2022-10-17T15:07:42.110Z,100643.53
2022-10-17T15:10:25.277Z,100638.53
2022-10-17T15:12:59.299Z,100647.13
2022-10-17T15:15:38.444Z,100642.44
2022-10-17T15:18:08.357Z,100648.94
2022-10-17T15:20:36.613Z,100652.38
2022-10-17T15:23:04.927Z,100657.94
2022-10-17T15:25:34.226Z,100657.81
2022-10-17T15:28:02.314Z,100662.47
2022-10-17T15:30:32.015Z,100666.16
2022-10-17T15:33:00.274Z,100666.94
2022-10-17T15:35:29.686Z,100665.34
2022-10-17T15:37:57.834Z,100664.69
2022-10-17T15:40:28.125Z,100673.31
2022-10-17T15:42:57.123Z,100669.97
2022-10-17T15:45:25.206Z,100668.31
2022-10-17T15:47:54.835Z,100673.75
2022-10-17T15:50:22.938Z,100666.69
2022-10-17T15:52:52.335Z,100664.88
2022-10-17T15:55:20.634Z,100668.94
2022-10-17T15:57:49.101Z,100667.25
2022-10-17T16:00:18.722Z,100672.78
2022-10-17T16:02:47.066Z,100670.00
2022-10-17T16:05:17.051Z,100677.47
2022-10-17T16:07:46.162Z,100680.47
2022-10-17T16:10:15.792Z,100675.72
2022-10-17T16:12:44.020Z,100681.44
2022-10-17T16:15:14.855Z,100681.25
2022-10-17T16:17:43.811Z,100683.03
2022-10-17T16:20:13.205Z,100680.44
2022-10-17T16:22:42.092Z,100686.38
2022-10-17T16:25:19.493Z,100685.75
2022-10-17T16:27:48.155Z,100694.13
2022-10-17T16:30:16.435Z,100698.19
2022-10-17T16:32:44.715Z,100698.09
2022-10-17T16:35:13.162Z,100699.41
2022-10-17T16:37:41.274Z,100706.88
2022-10-17T16:40:10.950Z,100698.59
2022-10-17T16:42:40.374Z,100699.75
2022-10-17T16:45:16.783Z,100706.88
2022-10-17T16:47:44.913Z,100720.94
2022-10-17T16:50:13.022Z,100713.00
2022-10-17T16:52:41.074Z,100714.59
2022-10-17T16:55:10.821Z,100720.59
2022-10-17T16:57:40.235Z,100716.25
2022-10-17T17:00:12.692Z,100723.84
2022-10-17T17:02:40.856Z,100726.63
2022-10-17T17:05:09.731Z,100722.97
2022-10-17T17:07:37.859Z,100731.38
2022-10-17T17:10:07.202Z,100731.03
2022-10-17T17:12:35.352Z,100719.53
2022-10-17T17:15:05.387Z,100727.09
2022-10-17T17:17:48.695Z,100740.59
2022-10-17T17:20:18.525Z,100739.44
2022-10-17T17:22:46.570Z,100732.97
2022-10-17T17:25:14.704Z,100732.53
2022-10-17T17:27:42.723Z,100743.41
2022-10-17T17:30:12.837Z,100742.16
2022-10-17T17:32:41.000Z,100747.81
2022-10-17T17:35:10.377Z,100737.78
2022-10-17T17:37:38.486Z,100757.25
2022-10-17T17:40:08.342Z,100752.38
2022-10-17T17:42:36.399Z,100750.88
2022-10-17T17:45:05.730Z,100758.97
2022-10-17T17:47:35.107Z,100758.31
2022-10-17T17:50:03.584Z,100757.69
2022-10-17T17:52:31.813Z,100762.28
2022-10-17T17:55:00.093Z,100763.31
2022-10-17T17:57:30.269Z,100756.59
2022-10-17T17:59:58.279Z,100760.25
2022-10-17T18:02:26.398Z,100760.44
2022-10-17T18:04:55.800Z,100760.66
2022-10-17T18:07:24.099Z,100757.28
2022-10-17T18:09:52.145Z,100763.34
2022-10-17T18:12:20.239Z,100771.22
2022-10-17T18:14:49.252Z,100780.75
2022-10-17T18:17:17.264Z,100776.34
2022-10-17T18:19:45.566Z,100775.31
2022-10-17T18:22:15.038Z,100781.06
2022-10-17T18:24:43.243Z,100781.06
2022-10-17T18:27:12.682Z,100782.03
2022-10-17T18:29:41.016Z,100777.00
2022-10-17T18:32:09.120Z,100772.91
2022-10-17T18:34:37.240Z,100779.78
2022-10-17T18:37:05.406Z,100778.22
2022-10-17T18:39:34.891Z,100787.03
2022-10-17T18:42:03.059Z,100786.38
2022-10-17T18:44:31.202Z,100779.34
2022-10-17T18:47:03.051Z,100794.22
2022-10-17T18:49:32.517Z,100789.94
2022-10-17T18:52:00.658Z,100786.38
2022-10-17T18:54:29.288Z,100788.16
2022-10-17T18:56:58.724Z,100782.91
2022-10-17T18:59:26.850Z,100786.59
2022-10-17T19:01:55.093Z,100789.94
2022-10-17T19:04:23.244Z,100787.31
2022-10-17T19:06:51.325Z,100790.69
2022-10-17T19:09:19.401Z,100782.84
2022-10-17T19:11:47.490Z,100775.00
2022-10-17T19:14:17.000Z,100772.56
2022-10-17T19:16:46.827Z,100770.03
2022-10-17T19:19:16.626Z,100781.44
2022-10-17T19:21:44.886Z,100784.78
2022-10-17T19:24:17.592Z,100787.31
2022-10-17T19:26:46.561Z,100783.00
2022-10-17T19:29:16.924Z,100781.34
2022-10-17T19:31:45.363Z,100774.41
2022-10-17T19:34:13.625Z,100780.69
2022-10-17T19:36:41.948Z,100778.00
2022-10-17T19:39:12.894Z,100776.13
2022-10-17T19:41:41.444Z,100776.94
2022-10-17T19:44:09.700Z,100774.25
2022-10-17T19:46:39.344Z,100783.00
2022-10-17T19:49:07.747Z,100769.19
2022-10-17T19:51:35.849Z,100772.94
2022-10-17T19:54:04.031Z,100769.78
2022-10-17T19:56:33.622Z,100770.00
2022-10-17T19:59:01.811Z,100768.41
2022-10-17T20:01:31.295Z,100765.16
2022-10-17T20:04:21.876Z,100760.13
2022-10-17T20:07:10.254Z,100756.75
2022-10-17T20:09:58.568Z,100762.00
2022-10-17T20:12:46.908Z,100762.91
2022-10-17T20:15:35.300Z,100767.41
2022-10-17T20:18:23.649Z,100767.41
2022-10-17T20:21:17.737Z,100771.41
2022-10-17T20:24:07.773Z,100773.53
2022-10-17T20:26:56.141Z,100770.53
2022-10-17T20:29:44.530Z,100773.59
2022-10-17T20:32:39.591Z,100768.06
2022-10-17T20:35:28.205Z,100772.16
2022-10-17T20:38:17.972Z,100771.13
2022-10-17T20:41:07.919Z,100768.41
2022-10-17T20:43:56.583Z,100766.72
2022-10-17T20:47:00.319Z,100771.94
2022-10-17T20:49:49.926Z,100768.59
2022-10-17T20:52:38.290Z,100774.03
2022-10-17T20:55:27.981Z,100776.00
2022-10-17T20:58:16.351Z,100778.00
2022-10-17T21:01:08.933Z,100776.28
2022-10-17T21:04:05.108Z,100772.94
2022-10-17T21:06:59.424Z,100779.88
2022-10-17T21:09:47.826Z,100781.53
2022-10-17T21:12:53.160Z,100774.41
2022-10-17T21:15:42.551Z,100784.06
2022-10-17T21:18:30.978Z,100784.06
2022-10-17T21:21:20.708Z,100783.00
2022-10-17T21:24:12.872Z,100787.03
2022-10-17T21:27:01.199Z,100786.72
2022-10-17T21:29:51.946Z,100792.50
2022-10-17T21:32:51.395Z,100792.50
2022-10-17T21:35:40.119Z,100794.28
2022-10-17T21:38:28.447Z,100799.81
2022-10-17T21:41:19.386Z,100782.84
2022-10-17T21:44:11.940Z,100769.41
2022-10-17T21:47:01.689Z,100775.66
2022-10-17T21:49:50.002Z,100773.34
2022-10-17T21:52:38.452Z,100760.97
2022-10-17T21:55:26.780Z,100782.19
2022-10-17T21:58:15.181Z,100784.19
2022-10-17T22:01:08.667Z,100777.69
2022-10-17T22:04:00.260Z,100788.53
2022-10-17T22:06:50.988Z,100784.66
2022-10-17T22:09:39.429Z,100798.03
2022-10-17T22:12:28.086Z,100793.09
2022-10-17T22:15:16.833Z,100786.47
2022-10-17T22:18:05.315Z,100785.00
2022-10-17T22:20:55.044Z,100787.84
2022-10-17T22:23:43.893Z,100778.44
2022-10-17T22:26:33.402Z,100771.91
2022-10-17T22:29:21.993Z,100783.41
2022-10-17T22:32:10.330Z,100779.28
2022-10-17T22:34:58.681Z,100775.31
2022-10-17T22:37:48.403Z,100770.25
2022-10-17T22:40:36.810Z,100764.28
2022-10-17T22:43:25.177Z,100771.34
2022-10-17T22:46:16.047Z,100768.84
2022-10-17T22:49:04.435Z,100761.03
2022-10-17T22:51:53.022Z,100760.91
2022-10-17T22:54:42.733Z,100763.34
2022-10-17T22:57:31.092Z,100760.63
2022-10-17T23:00:19.674Z,100748.31
2022-10-17T23:03:08.080Z,100745.34
2022-10-17T23:05:56.626Z,100743.09
2022-10-17T23:08:45.069Z,100737.59
2022-10-17T23:11:34.770Z,100745.03
2022-10-17T23:14:23.137Z,100743.06
2022-10-17T23:17:11.827Z,100735.88
2022-10-17T23:20:00.178Z,100742.59
2022-10-17T23:22:48.566Z,100744.19
2022-10-17T23:25:36.927Z,100751.81
2022-10-17T23:28:26.806Z,100752.56
2022-10-17T23:31:16.591Z,100748.28
2022-10-17T23:34:04.947Z,100758.00
2022-10-17T23:36:53.416Z,100759.94
2022-10-17T23:39:41.754Z,100759.19
2022-10-17T23:42:30.156Z,100764.13
2022-10-17T23:45:19.979Z,100767.41
2022-10-17T23:48:08.351Z,100762.81
2022-10-17T23:50:56.849Z,100760.06
2022-10-17T23:53:45.218Z,100759.22
2022-10-17T23:56:33.583Z,100747.91
2022-10-17T23:59:21.887Z,100758.28
